sensor_id;sensor_type;location;lat;lon;timestamp;pressure;altitude;pressure_sealevel;temperature;humidity
63652;BME280;49801;37.536;-122.304;2022-11-20T00:00:06;101989.50;;;14.52;35.01
63652;BME280;49801;37.536;-122.304;2022-11-20T00:00:31;101993.25;;;14.51;35.07
63652;BME280;49801;37.536;-122.304;2022-11-20T00:01:03;101989.84;;;14.49;35.37
63652;BME280;49801;37.536;-122.304;2022-11-20T00:01:29;101992.56;;;14.49;35.26
63652;BME280;49801;37.536;-122.304;2022-11-20T00:01:55;101987.28;;;14.47;35.22
63652;BME280;49801;37.536;-122.304;2022-11-20T00:02:21;101991.03;;;14.46;35.00
63652;BME280;49801;37.536;-122.304;2022-11-20T00:02:46;101993.78;;;14.46;35.14
63652;BME280;49801;37.536;-122.304;2022-11-20T00:03:12;101988.66;;;14.43;34.85
63652;BME280;49801;37.536;-122.304;2022-11-20T00:03:38;101993.25;;;14.42;34.67
63652;BME280;49801;37.536;-122.304;2022-11-20T00:04:04;101986.25;;;14.40;34.44
63652;BME280;49801;37.536;-122.304;2022-11-20T00:04:30;101992.53;;;14.40;34.43
63652;BME280;49801;37.536;-122.304;2022-11-20T00:04:56;101996.31;;;14.39;34.60
63652;BME280;49801;37.536;-122.304;2022-11-20T00:05:21;101994.59;;;14.38;34.61
63652;BME280;49801;37.536;-122.304;2022-11-20T00:05:47;101989.16;;;14.38;34.65
63652;BME280;49801;37.536;-122.304;2022-11-20T00:06:14;101992.91;;;14.37;34.80
63652;BME280;49801;37.536;-122.304;2022-11-20T00:06:40;101992.91;;;14.37;34.71
63652;BME280;49801;37.536;-122.304;2022-11-20T00:07:06;101987.78;;;14.34;34.91
63652;BME280;49801;37.536;-122.304;2022-11-20T00:07:31;101991.50;;;14.33;34.80
63652;BME280;49801;37.536;-122.304;2022-11-20T00:07:57;101990.66;;;14.33;35.03
63652;BME280;49801;37.536;-122.304;2022-11-20T00:08:23;101998.84;;;14.33;35.19
63652;BME280;49801;37.536;-122.304;2022-11-20T00:08:49;102001.91;;;14.30;35.29
63652;BME280;49801;37.536;-122.304;2022-11-20T00:09:15;101992.19;;;14.27;35.42
63652;BME280;49801;37.536;-122.304;2022-11-20T00:09:41;101990.47;;;14.26;35.97
63652;BME280;49801;37.536;-122.304;2022-11-20T00:10:06;101993.53;;;14.23;36.19
63652;BME280;49801;37.536;-122.304;2022-11-20T00:10:32;102000.03;;;14.22;36.27
63652;BME280;49801;37.536;-122.304;2022-11-20T00:11:08;101997.63;;;14.19;36.26
63652;BME280;49801;37.536;-122.304;2022-11-20T00:11:34;101992.81;;;14.13;36.03
63652;BME280;49801;37.536;-122.304;2022-11-20T00:12:00;101986.00;;;14.09;35.83
63652;BME280;49801;37.536;-122.304;2022-11-20T00:12:25;101998.59;;;14.10;35.95
63652;BME280;49801;37.536;-122.304;2022-11-20T00:12:51;102003.38;;;14.07;36.09
63652;BME280;49801;37.536;-122.304;2022-11-20T00:13:17;101992.47;;;14.07;36.26
63652;BME280;49801;37.536;-122.304;2022-11-20T00:13:43;101992.63;;;14.06;36.30
63652;BME280;49801;37.536;-122.304;2022-11-20T00:14:09;101989.22;;;14.04;36.12
63652;BME280;49801;37.536;-122.304;2022-11-20T00:14:35;101990.25;;;14.03;36.20
63652;BME280;49801;37.536;-122.304;2022-11-20T00:15:01;101993.16;;;14.01;36.04
63652;BME280;49801;37.536;-122.304;2022-11-20T00:15:26;101992.28;;;14.01;36.55
63652;BME280;49801;37.536;-122.304;2022-11-20T00:15:59;101996.03;;;14.00;36.75
63652;BME280;49801;37.536;-122.304;2022-11-20T00:16:25;101988.19;;;13.97;37.23
63652;BME280;49801;37.536;-122.304;2022-11-20T00:16:51;101994.81;;;13.94;37.13
63652;BME280;49801;37.536;-122.304;2022-11-20T00:17:17;101988.66;;;13.92;37.08
63652;BME280;49801;37.536;-122.304;2022-11-20T00:17:43;101988.00;;;13.90;37.22
63652;BME280;49801;37.536;-122.304;2022-11-20T00:18:09;101991.91;;;13.87;37.30
63652;BME280;49801;37.536;-122.304;2022-11-20T00:18:35;101989.34;;;13.86;37.17
63652;BME280;49801;37.536;-122.304;2022-11-20T00:19:01;101989.66;;;13.83;37.36
63652;BME280;49801;37.536;-122.304;2022-11-20T00:19:27;101991.69;;;13.81;37.62
63652;BME280;49801;37.536;-122.304;2022-11-20T00:19:52;101997.47;;;13.78;37.67
63652;BME280;49801;37.536;-122.304;2022-11-20T00:20:18;101999.50;;;13.76;37.82
63652;BME280;49801;37.536;-122.304;2022-11-20T00:20:44;101998.09;;;13.72;38.24
63652;BME280;49801;37.536;-122.304;2022-11-20T00:21:11;101989.25;;;13.69;38.62
63652;BME280;49801;37.536;-122.304;2022-11-20T00:21:37;101999.47;;;13.67;38.74
63652;BME280;49801;37.536;-122.304;2022-11-20T00:22:03;101990.78;;;13.64;38.87
63652;BME280;49801;37.536;-122.304;2022-11-20T00:22:28;101998.25;;;13.62;39.26
63652;BME280;49801;37.536;-122.304;2022-11-20T00:22:54;101994.81;;;13.60;39.22
63652;BME280;49801;37.536;-122.304;2022-11-20T00:23:20;101998.03;;;13.55;39.47
63652;BME280;49801;37.536;-122.304;2022-11-20T00:23:46;101999.19;;;13.53;39.50
63652;BME280;49801;37.536;-122.304;2022-11-20T00:24:11;101994.94;;;13.50;39.78
63652;BME280;49801;37.536;-122.304;2022-11-20T00:24:37;101994.28;;;13.48;39.59
63652;BME280;49801;37.536;-122.304;2022-11-20T00:25:03;101992.69;;;13.45;39.72
63652;BME280;49801;37.536;-122.304;2022-11-20T00:25:29;101999.34;;;13.43;39.63
63652;BME280;49801;37.536;-122.304;2022-11-20T00:25:55;101995.06;;;13.40;39.81
63652;BME280;49801;37.536;-122.304;2022-11-20T00:26:21;101994.53;;;13.37;39.90
63652;BME280;49801;37.536;-122.304;2022-11-20T00:26:47;102002.00;;;13.35;40.14
63652;BME280;49801;37.536;-122.304;2022-11-20T00:27:13;101999.59;;;13.31;40.28
63652;BME280;49801;37.536;-122.304;2022-11-20T00:27:38;101996.31;;;13.28;40.61
63652;BME280;49801;37.536;-122.304;2022-11-20T00:28:04;101997.47;;;13.25;40.53
63652;BME280;49801;37.536;-122.304;2022-11-20T00:28:30;101994.94;;;13.24;40.80
63652;BME280;49801;37.536;-122.304;2022-11-20T00:28:57;101998.81;;;13.21;41.19
63652;BME280;49801;37.536;-122.304;2022-11-20T00:29:23;101996.41;;;13.18;41.14
63652;BME280;49801;37.536;-122.304;2022-11-20T00:29:49;101998.44;;;13.16;41.18
63652;BME280;49801;37.536;-122.304;2022-11-20T00:30:15;102004.19;;;13.13;41.45
63652;BME280;49801;37.536;-122.304;2022-11-20T00:30:41;102006.22;;;13.11;41.56
63652;BME280;49801;37.536;-122.304;2022-11-20T00:31:14;102004.69;;;13.08;41.46
63652;BME280;49801;37.536;-122.304;2022-11-20T00:31:40;102005.84;;;13.06;41.72
63652;BME280;49801;37.536;-122.304;2022-11-20T00:32:05;102003.44;;;13.03;41.52
63652;BME280;49801;37.536;-122.304;2022-11-20T00:32:31;102004.63;;;13.00;41.49
63652;BME280;49801;37.536;-122.304;2022-11-20T00:32:57;102005.78;;;12.98;41.87
63652;BME280;49801;37.536;-122.304;2022-11-20T00:33:23;102001.50;;;12.95;42.06
63652;BME280;49801;37.536;-122.304;2022-11-20T00:33:49;102006.41;;;12.91;42.04
63652;BME280;49801;37.536;-122.304;2022-11-20T00:34:14;102004.69;;;12.90;42.03
63652;BME280;49801;37.536;-122.304;2022-11-20T00:34:40;102001.44;;;12.87;42.28
63652;BME280;49801;37.536;-122.304;2022-11-20T00:35:06;102007.03;;;12.85;42.44
63652;BME280;49801;37.536;-122.304;2022-11-20T00:35:32;102001.91;;;12.82;42.73
63652;BME280;49801;37.536;-122.304;2022-11-20T00:36:01;102003.94;;;12.80;42.85
63652;BME280;49801;37.536;-122.304;2022-11-20T00:36:28;102002.53;;;12.76;42.85
63652;BME280;49801;37.536;-122.304;2022-11-20T00:36:54;102002.84;;;12.73;42.77
63652;BME280;49801;37.536;-122.304;2022-11-20T00:37:20;101999.44;;;12.71;43.32
63652;BME280;49801;37.536;-122.304;2022-11-20T00:37:46;102012.34;;;12.69;43.21
63652;BME280;49801;37.536;-122.304;2022-11-20T00:38:11;102003.47;;;12.67;43.30
63652;BME280;49801;37.536;-122.304;2022-11-20T00:38:37;102000.22;;;12.63;43.36
63652;BME280;49801;37.536;-122.304;2022-11-20T00:39:03;102005.78;;;12.62;43.33
63652;BME280;49801;37.536;-122.304;2022-11-20T00:39:29;102006.13;;;12.59;43.23
63652;BME280;49801;37.536;-122.304;2022-11-20T00:39:54;102008.13;;;12.56;43.14
63652;BME280;49801;37.536;-122.304;2022-11-20T00:40:20;102010.16;;;12.54;43.21
63652;BME280;49801;37.536;-122.304;2022-11-20T00:40:46;102010.44;;;12.51;43.44
63652;BME280;49801;37.536;-122.304;2022-11-20T00:41:13;102012.47;;;12.49;43.28
63652;BME280;49801;37.536;-122.304;2022-11-20T00:41:40;102009.06;;;12.47;43.56
63652;BME280;49801;37.536;-122.304;2022-11-20T00:42:05;102019.22;;;12.45;43.83
63652;BME280;49801;37.536;-122.304;2022-11-20T00:42:31;102015.81;;;12.43;43.75
63652;BME280;49801;37.536;-122.304;2022-11-20T00:42:58;102009.66;;;12.41;43.66
63652;BME280;49801;37.536;-122.304;2022-11-20T00:43:24;102015.44;;;12.38;44.00
63652;BME280;49801;37.536;-122.304;2022-11-20T00:43:52;102006.56;;;12.36;44.25
63652;BME280;49801;37.536;-122.304;2022-11-20T00:44:18;102007.72;;;12.33;44.07
63652;BME280;49801;37.536;-122.304;2022-11-20T00:44:43;102010.59;;;12.32;44.13
63652;BME280;49801;37.536;-122.304;2022-11-20T00:45:09;102010.91;;;12.29;44.23
63652;BME280;49801;37.536;-122.304;2022-11-20T00:45:35;102004.78;;;12.27;44.15
63652;BME280;49801;37.536;-122.304;2022-11-20T00:46:02;102003.22;;;12.24;44.36
63652;BME280;49801;37.536;-122.304;2022-11-20T00:46:28;102001.66;;;12.22;44.33
63652;BME280;49801;37.536;-122.304;2022-11-20T00:46:54;102010.09;;;12.18;44.62
63652;BME280;49801;37.536;-122.304;2022-11-20T00:47:20;102008.41;;;12.17;44.78
63652;BME280;49801;37.536;-122.304;2022-11-20T00:47:45;102010.44;;;12.15;45.03
63652;BME280;49801;37.536;-122.304;2022-11-20T00:48:11;102006.28;;;12.11;45.11
63652;BME280;49801;37.536;-122.304;2022-11-20T00:48:37;102012.75;;;12.10;45.23
63652;BME280;49801;37.536;-122.304;2022-11-20T00:49:03;102011.19;;;12.08;45.31
63652;BME280;49801;37.536;-122.304;2022-11-20T00:49:28;102009.63;;;12.05;45.24
63652;BME280;49801;37.536;-122.304;2022-11-20T00:49:54;102010.78;;;12.03;45.45
63652;BME280;49801;37.536;-122.304;2022-11-20T00:50:20;102013.63;;;12.01;45.21
63652;BME280;49801;37.536;-122.304;2022-11-20T00:50:46;102017.69;;;11.97;45.43
63652;BME280;49801;37.536;-122.304;2022-11-20T00:51:13;102012.53;;;11.94;45.37
63652;BME280;49801;37.536;-122.304;2022-11-20T00:51:39;102015.41;;;11.92;45.31
63652;BME280;49801;37.536;-122.304;2022-11-20T00:52:05;102011.25;;;11.88;45.72
63652;BME280;49801;37.536;-122.304;2022-11-20T00:52:30;102011.41;;;11.87;45.82
63652;BME280;49801;37.536;-122.304;2022-11-20T00:52:56;102011.69;;;11.83;46.16
63652;BME280;49801;37.536;-122.304;2022-11-20T00:53:22;102026.25;;;11.82;46.13
63652;BME280;49801;37.536;-122.304;2022-11-20T00:53:48;102018.44;;;11.79;46.31
63652;BME280;49801;37.536;-122.304;2022-11-20T00:54:14;102021.31;;;11.78;46.26
63652;BME280;49801;37.536;-122.304;2022-11-20T00:54:40;102020.59;;;11.76;46.09
63652;BME280;49801;37.536;-122.304;2022-11-20T00:55:06;102019.03;;;11.73;46.06
63652;BME280;49801;37.536;-122.304;2022-11-20T00:55:32;102019.16;;;11.72;46.42
63652;BME280;49801;37.536;-122.304;2022-11-20T00:56:01;102020.34;;;11.69;46.18
63652;BME280;49801;37.536;-122.304;2022-11-20T00:56:28;102020.63;;;11.66;46.49
63652;BME280;49801;37.536;-122.304;2022-11-20T00:56:54;102021.63;;;11.65;46.34
63652;BME280;49801;37.536;-122.304;2022-11-20T00:57:19;102026.34;;;11.63;46.42
63652;BME280;49801;37.536;-122.304;2022-11-20T00:57:45;102022.94;;;11.61;46.44
63652;BME280;49801;37.536;-122.304;2022-11-20T00:58:11;102024.94;;;11.59;46.58
63652;BME280;49801;37.536;-122.304;2022-11-20T00:58:37;102026.94;;;11.57;46.78
63652;BME280;49801;37.536;-122.304;2022-11-20T00:59:03;102027.09;;;11.55;46.86
63652;BME280;49801;37.536;-122.304;2022-11-20T00:59:29;102022.81;;;11.53;46.76
63652;BME280;49801;37.536;-122.304;2022-11-20T00:59:55;102025.81;;;11.50;46.70
63652;BME280;49801;37.536;-122.304;2022-11-20T01:00:21;102029.53;;;11.49;46.64
63652;BME280;49801;37.536;-122.304;2022-11-20T01:00:46;102016.28;;;11.45;46.76
63652;BME280;49801;37.536;-122.304;2022-11-20T01:01:19;102022.69;;;11.44;46.86
63652;BME280;49801;37.536;-122.304;2022-11-20T01:01:45;102026.56;;;11.42;47.14
63652;BME280;49801;37.536;-122.304;2022-11-20T01:02:11;102023.16;;;11.40;47.44
63652;BME280;49801;37.536;-122.304;2022-11-20T01:02:37;102022.41;;;11.38;47.59
63652;BME280;49801;37.536;-122.304;2022-11-20T01:03:03;102031.56;;;11.37;47.60
63652;BME280;49801;37.536;-122.304;2022-11-20T01:03:30;102025.59;;;11.33;47.52
63652;BME280;49801;37.536;-122.304;2022-11-20T01:03:58;102020.44;;;11.30;47.26
63652;BME280;49801;37.536;-122.304;2022-11-20T01:04:24;102026.16;;;11.27;47.46
63652;BME280;49801;37.536;-122.304;2022-11-20T01:04:50;102024.47;;;11.26;47.65
63652;BME280;49801;37.536;-122.304;2022-11-20T01:05:16;102024.75;;;11.23;48.10
63652;BME280;49801;37.536;-122.304;2022-11-20T01:05:42;102026.75;;;11.21;48.12
63652;BME280;49801;37.536;-122.304;2022-11-20T01:06:09;102025.19;;;11.18;47.95
63652;BME280;49801;37.536;-122.304;2022-11-20T01:06:37;102035.31;;;11.16;47.57
63652;BME280;49801;37.536;-122.304;2022-11-20T01:07:03;102028.31;;;11.14;47.91
63652;BME280;49801;37.536;-122.304;2022-11-20T01:07:28;102033.88;;;11.12;47.88
63652;BME280;49801;37.536;-122.304;2022-11-20T01:07:54;102030.59;;;11.08;47.93
63652;BME280;49801;37.536;-122.304;2022-11-20T01:08:20;102039.06;;;11.05;48.66
63652;BME280;49801;37.536;-122.304;2022-11-20T01:08:46;102030.19;;;11.03;48.69
63652;BME280;49801;37.536;-122.304;2022-11-20T01:09:13;102030.50;;;11.00;48.63
63652;BME280;49801;37.536;-122.304;2022-11-20T01:09:39;102037.03;;;10.98;49.03
63652;BME280;49801;37.536;-122.304;2022-11-20T01:10:05;102034.47;;;10.96;48.63
63652;BME280;49801;37.536;-122.304;2022-11-20T01:10:31;102034.75;;;10.93;48.73
63652;BME280;49801;37.536;-122.304;2022-11-20T01:11:03;102033.06;;;10.92;48.26
63652;BME280;49801;37.536;-122.304;2022-11-20T01:11:34;102031.63;;;10.88;48.30
63652;BME280;49801;37.536;-122.304;2022-11-20T01:12:00;102034.66;;;10.85;48.23
63652;BME280;49801;37.536;-122.304;2022-11-20T01:12:25;102034.78;;;10.83;48.38
63652;BME280;49801;37.536;-122.304;2022-11-20T01:12:51;102037.63;;;10.82;48.52
63652;BME280;49801;37.536;-122.304;2022-11-20T01:13:37;102037.06;;;10.78;48.68
63652;BME280;49801;37.536;-122.304;2022-11-20T01:14:04;102034.50;;;10.77;48.54
63652;BME280;49801;37.536;-122.304;2022-11-20T01:14:30;102037.47;;;10.74;48.46
63652;BME280;49801;37.536;-122.304;2022-11-20T01:14:56;102039.47;;;10.72;48.78
63652;BME280;49801;37.536;-122.304;2022-11-20T01:15:22;102034.19;;;10.70;48.56
63652;BME280;49801;37.536;-122.304;2022-11-20T01:15:47;102043.44;;;10.67;48.80
63652;BME280;49801;37.536;-122.304;2022-11-20T01:16:40;102036.75;;;10.62;48.65
63652;BME280;49801;37.536;-122.304;2022-11-20T01:17:06;102035.19;;;10.59;48.63
63652;BME280;49801;37.536;-122.304;2022-11-20T01:17:32;102047.03;;;10.58;48.40
63652;BME280;49801;37.536;-122.304;2022-11-20T01:17:58;102038.19;;;10.56;48.46
63652;BME280;49801;37.536;-122.304;2022-11-20T01:18:23;102042.91;;;10.54;48.45
63652;BME280;49801;37.536;-122.304;2022-11-20T01:18:50;102042.19;;;10.52;48.30
63652;BME280;49801;37.536;-122.304;2022-11-20T01:19:18;102044.16;;;10.50;48.31
63652;BME280;49801;37.536;-122.304;2022-11-20T01:19:44;102045.16;;;10.49;48.44
63652;BME280;49801;37.536;-122.304;2022-11-20T01:20:10;102043.59;;;10.46;48.45
63652;BME280;49801;37.536;-122.304;2022-11-20T01:20:36;102043.72;;;10.45;48.67
63652;BME280;49801;37.536;-122.304;2022-11-20T01:21:03;102041.31;;;10.42;48.30
63652;BME280;49801;37.536;-122.304;2022-11-20T01:21:30;102043.28;;;10.40;48.75
63652;BME280;49801;37.536;-122.304;2022-11-20T01:21:56;102040.72;;;10.38;48.39
63652;BME280;49801;37.536;-122.304;2022-11-20T01:22:22;102047.28;;;10.36;48.58
63652;BME280;49801;37.536;-122.304;2022-11-20T01:22:48;102044.56;;;10.36;48.60
63652;BME280;49801;37.536;-122.304;2022-11-20T01:23:13;102051.97;;;10.34;48.78
63652;BME280;49801;37.536;-122.304;2022-11-20T01:23:40;102052.13;;;10.32;48.52
63652;BME280;49801;37.536;-122.304;2022-11-20T01:24:06;102049.50;;;10.30;48.93
63652;BME280;49801;37.536;-122.304;2022-11-20T01:24:33;102040.69;;;10.28;48.46
63652;BME280;49801;37.536;-122.304;2022-11-20T01:24:59;102050.06;;;10.24;48.51
63652;BME280;49801;37.536;-122.304;2022-11-20T01:25:24;102049.22;;;10.24;48.81
63652;BME280;49801;37.536;-122.304;2022-11-20T01:25:50;102051.19;;;10.22;48.67
63652;BME280;49801;37.536;-122.304;2022-11-20T01:26:17;102051.34;;;10.20;48.59
63652;BME280;49801;37.536;-122.304;2022-11-20T01:26:43;102055.16;;;10.18;48.67
63652;BME280;49801;37.536;-122.304;2022-11-20T01:27:09;102050.91;;;10.15;48.60
63652;BME280;49801;37.536;-122.304;2022-11-20T01:27:35;102060.00;;;10.14;48.93
63652;BME280;49801;37.536;-122.304;2022-11-20T01:28:01;102050.31;;;10.11;48.50
63652;BME280;49801;37.536;-122.304;2022-11-20T01:28:27;102051.28;;;10.10;48.96
63652;BME280;49801;37.536;-122.304;2022-11-20T01:28:53;102052.44;;;10.08;48.83
63652;BME280;49801;37.536;-122.304;2022-11-20T01:29:21;102051.72;;;10.06;48.86
63652;BME280;49801;37.536;-122.304;2022-11-20T01:29:47;102053.69;;;10.04;49.10
63652;BME280;49801;37.536;-122.304;2022-11-20T01:30:13;102052.00;;;10.03;48.70
63652;BME280;49801;37.536;-122.304;2022-11-20T01:30:39;102052.28;;;10.00;48.78
63652;BME280;49801;37.536;-122.304;2022-11-20T01:31:12;102050.53;;;9.99;49.25
63652;BME280;49801;37.536;-122.304;2022-11-20T01:31:38;102051.69;;;9.96;49.17
63652;BME280;49801;37.536;-122.304;2022-11-20T01:32:04;102049.13;;;9.94;49.31
63652;BME280;49801;37.536;-122.304;2022-11-20T01:32:30;102056.53;;;9.92;49.46
63652;BME280;49801;37.536;-122.304;2022-11-20T01:32:55;102056.78;;;9.89;49.45
63652;BME280;49801;37.536;-122.304;2022-11-20T01:33:21;102065.88;;;9.88;49.30
63652;BME280;49801;37.536;-122.304;2022-11-20T01:33:47;102057.06;;;9.86;49.32
63652;BME280;49801;37.536;-122.304;2022-11-20T01:34:15;102061.63;;;9.86;49.14
63652;BME280;49801;37.536;-122.304;2022-11-20T01:34:42;102059.03;;;9.84;48.93
63652;BME280;49801;37.536;-122.304;2022-11-20T01:35:07;102059.19;;;9.83;49.45
63652;BME280;49801;37.536;-122.304;2022-11-20T01:35:34;102063.03;;;9.80;49.27
63652;BME280;49801;37.536;-122.304;2022-11-20T01:36:04;102067.56;;;9.80;49.56
63652;BME280;49801;37.536;-122.304;2022-11-20T01:36:31;102061.28;;;9.79;49.61
63652;BME280;49801;37.536;-122.304;2022-11-20T01:36:57;102058.84;;;9.76;49.49
63652;BME280;49801;37.536;-122.304;2022-11-20T01:37:22;102060.72;;;9.75;49.00
63652;BME280;49801;37.536;-122.304;2022-11-20T01:37:49;102059.88;;;9.75;49.79
63652;BME280;49801;37.536;-122.304;2022-11-20T01:38:16;102068.25;;;9.72;50.33
63652;BME280;49801;37.536;-122.304;2022-11-20T01:38:42;102062.13;;;9.70;50.43
63652;BME280;49801;37.536;-122.304;2022-11-20T01:39:12;102064.81;;;9.70;49.99
63652;BME280;49801;37.536;-122.304;2022-11-20T01:39:38;102069.47;;;9.68;49.89
63652;BME280;49801;37.536;-122.304;2022-11-20T01:40:04;102070.63;;;9.65;49.75
63652;BME280;49801;37.536;-122.304;2022-11-20T01:40:30;102075.19;;;9.65;49.71
63652;BME280;49801;37.536;-122.304;2022-11-20T01:40:56;102077.19;;;9.63;50.27
63652;BME280;49801;37.536;-122.304;2022-11-20T01:41:22;102078.16;;;9.62;50.28
63652;BME280;49801;37.536;-122.304;2022-11-20T01:42:07;102075.72;;;9.58;49.76
63652;BME280;49801;37.536;-122.304;2022-11-20T01:42:53;102076.72;;;9.57;50.19
63652;BME280;49801;37.536;-122.304;2022-11-20T01:43:41;102072.53;;;9.53;50.46
63652;BME280;49801;37.536;-122.304;2022-11-20T01:44:09;102074.53;;;9.51;50.71
63652;BME280;49801;37.536;-122.304;2022-11-20T01:46:36;102083.03;;;9.47;50.13
63652;BME280;49801;37.536;-122.304;2022-11-20T01:47:03;102082.31;;;9.45;49.79
63652;BME280;49801;37.536;-122.304;2022-11-20T01:47:43;102078.75;;;9.44;50.22
63652;BME280;49801;37.536;-122.304;2022-11-20T01:48:10;102078.03;;;9.42;49.99
63652;BME280;49801;37.536;-122.304;2022-11-20T01:48:44;102087.13;;;9.41;50.04
63652;BME280;49801;37.536;-122.304;2022-11-20T01:49:15;102081.00;;;9.39;50.73
63652;BME280;49801;37.536;-122.304;2022-11-20T01:49:47;102079.53;;;9.35;51.03
63652;BME280;49801;37.536;-122.304;2022-11-20T01:50:18;102083.25;;;9.34;50.80
63652;BME280;49801;37.536;-122.304;2022-11-20T01:50:48;102078.94;;;9.31;50.38
63652;BME280;49801;37.536;-122.304;2022-11-20T01:52:01;102081.78;;;9.30;50.66
63652;BME280;49801;37.536;-122.304;2022-11-20T01:52:34;102076.66;;;9.27;50.94
63652;BME280;49801;37.536;-122.304;2022-11-20T01:53:03;102080.34;;;9.26;51.15
63652;BME280;49801;37.536;-122.304;2022-11-20T01:53:32;102080.47;;;9.24;51.17
63652;BME280;49801;37.536;-122.304;2022-11-20T01:54:00;102077.03;;;9.22;50.80
63652;BME280;49801;37.536;-122.304;2022-11-20T01:54:31;102079.88;;;9.20;50.72
63652;BME280;49801;37.536;-122.304;2022-11-20T01:55:22;102082.59;;;9.20;50.81
63652;BME280;49801;37.536;-122.304;2022-11-20T01:55:50;102079.16;;;9.18;51.05
63652;BME280;49801;37.536;-122.304;2022-11-20T01:56:17;102078.44;;;9.16;51.07
63652;BME280;49801;37.536;-122.304;2022-11-20T01:56:44;102084.81;;;9.15;50.84
63652;BME280;49801;37.536;-122.304;2022-11-20T01:57:11;102076.97;;;9.12;51.23
63652;BME280;49801;37.536;-122.304;2022-11-20T01:57:37;102077.97;;;9.11;51.44
63652;BME280;49801;37.536;-122.304;2022-11-20T01:58:04;102079.91;;;9.09;51.38
63652;BME280;49801;37.536;-122.304;2022-11-20T01:58:32;102085.31;;;9.09;51.42
63652;BME280;49801;37.536;-122.304;2022-11-20T01:58:59;102084.47;;;9.09;51.58
63652;BME280;49801;37.536;-122.304;2022-11-20T01:59:27;102080.22;;;9.06;51.31
63652;BME280;49801;37.536;-122.304;2022-11-20T01:59:57;102078.47;;;9.05;51.32
63652;BME280;49801;37.536;-122.304;2022-11-20T02:00:25;102086.72;;;9.04;51.40
63652;BME280;49801;37.536;-122.304;2022-11-20T02:00:51;102086.72;;;9.04;51.97
63652;BME280;49801;37.536;-122.304;2022-11-20T02:01:16;102081.44;;;9.02;51.79
63652;BME280;49801;37.536;-122.304;2022-11-20T02:01:42;102080.72;;;9.00;52.01
63652;BME280;49801;37.536;-122.304;2022-11-20T02:02:08;102084.38;;;8.99;51.83
63652;BME280;49801;37.536;-122.304;2022-11-20T02:02:35;102084.38;;;8.99;52.02
63652;BME280;49801;37.536;-122.304;2022-11-20T02:03:03;102091.78;;;8.97;51.92
63652;BME280;49801;37.536;-122.304;2022-11-20T02:03:30;102090.06;;;8.96;51.76
63652;BME280;49801;37.536;-122.304;2022-11-20T02:03:57;102084.94;;;8.93;51.63
63652;BME280;49801;37.536;-122.304;2022-11-20T02:04:23;102089.47;;;8.92;51.43
63652;BME280;49801;37.536;-122.304;2022-11-20T02:04:50;102094.00;;;8.92;51.89
63652;BME280;49801;37.536;-122.304;2022-11-20T02:05:57;102088.84;;;8.89;51.92
63652;BME280;49801;37.536;-122.304;2022-11-20T02:06:30;102091.72;;;8.87;52.23
63652;BME280;49801;37.536;-122.304;2022-11-20T02:07:01;102096.47;;;8.83;52.40
63652;BME280;49801;37.536;-122.304;2022-11-20T02:07:28;102095.75;;;8.81;53.01
63652;BME280;49801;37.536;-122.304;2022-11-20T02:07:54;102092.22;;;8.81;52.29
63652;BME280;49801;37.536;-122.304;2022-11-20T02:08:21;102089.63;;;8.79;52.05
63652;BME280;49801;37.536;-122.304;2022-11-20T02:08:48;102095.03;;;8.79;52.08
63652;BME280;49801;37.536;-122.304;2022-11-20T02:09:14;102090.75;;;8.77;52.15
63652;BME280;49801;37.536;-122.304;2022-11-20T02:09:40;102097.97;;;8.76;51.94
63652;BME280;49801;37.536;-122.304;2022-11-20T02:10:06;102100.69;;;8.76;52.15
63652;BME280;49801;37.536;-122.304;2022-11-20T02:10:32;102099.00;;;8.75;52.29
63652;BME280;49801;37.536;-122.304;2022-11-20T02:10:58;102105.38;;;8.74;52.78
63652;BME280;49801;37.536;-122.304;2022-11-20T02:11:24;102091.84;;;8.74;52.72
63652;BME280;49801;37.536;-122.304;2022-11-20T02:11:49;102100.09;;;8.73;52.55
63652;BME280;49801;37.536;-122.304;2022-11-20T02:12:16;102102.91;;;8.71;52.30
63652;BME280;49801;37.536;-122.304;2022-11-20T02:13:00;102105.59;;;8.71;52.40
63652;BME280;49801;37.536;-122.304;2022-11-20T02:13:44;102101.47;;;8.67;52.72
63652;BME280;49801;37.536;-122.304;2022-11-20T02:14:11;102100.63;;;8.67;52.70
63652;BME280;49801;37.536;-122.304;2022-11-20T02:14:37;102104.41;;;8.64;52.95
63652;BME280;49801;37.536;-122.304;2022-11-20T02:15:02;102106.38;;;8.62;53.33
63652;BME280;49801;37.536;-122.304;2022-11-20T02:15:28;102106.38;;;8.62;53.45
63652;BME280;49801;37.536;-122.304;2022-11-20T02:15:54;102108.34;;;8.60;53.42
63652;BME280;49801;37.536;-122.304;2022-11-20T02:16:24;102101.34;;;8.57;53.46
63652;BME280;49801;37.536;-122.304;2022-11-20T02:16:50;102107.63;;;8.58;53.53
63652;BME280;49801;37.536;-122.304;2022-11-20T02:17:16;102103.22;;;8.57;53.12
63652;BME280;49801;37.536;-122.304;2022-11-20T02:17:42;102106.88;;;8.56;53.45
63652;BME280;49801;37.536;-122.304;2022-11-20T02:18:09;102105.19;;;8.55;53.31
63652;BME280;49801;37.536;-122.304;2022-11-20T02:18:35;102109.84;;;8.53;53.15
63652;BME280;49801;37.536;-122.304;2022-11-20T02:19:02;102109.84;;;8.53;53.44
63652;BME280;49801;37.536;-122.304;2022-11-20T02:19:30;102102.72;;;8.52;53.24
63652;BME280;49801;37.536;-122.304;2022-11-20T02:19:56;102111.78;;;8.51;53.36
63652;BME280;49801;37.536;-122.304;2022-11-20T02:20:22;102104.69;;;8.50;53.04